sensor_id;sensor_type;location;lat;lon;timestamp;temperature;humidity
7349;DHT22;13010;-33.424;-70.614;2023-02-08T00:02:05;23.20;37.90
7349;DHT22;13010;-33.424;-70.614;2023-02-08T00:04:56;23.00;41.00
7349;DHT22;13010;-33.424;-70.614;2023-02-08T00:07:45;23.00;43.10
7349;DHT22;13010;-33.424;-70.614;2023-02-08T00:10:34;22.80;47.60
7349;DHT22;13010;-33.424;-70.614;2023-02-08T00:13:23;22.60;51.30
7349;DHT22;13010;-33.424;-70.614;2023-02-08T00:16:13;22.60;56.80
7349;DHT22;13010;-33.424;-70.614;2023-02-08T00:19:03;22.60;61.00
7349;DHT22;13010;-33.424;-70.614;2023-02-08T00:21:54;22.60;64.60
7349;DHT22;13010;-33.424;-70.614;2023-02-08T00:24:43;22.70;66.30
7349;DHT22;13010;-33.424;-70.614;2023-02-08T00:27:32;22.70;68.60
7349;DHT22;13010;-33.424;-70.614;2023-02-08T00:30:21;22.50;72.10
7349;DHT22;13010;-33.424;-70.614;2023-02-08T00:33:09;22.40;78.50
7349;DHT22;13010;-33.424;-70.614;2023-02-08T00:35:59;22.10;85.60
7349;DHT22;13010;-33.424;-70.614;2023-02-08T00:38:50;22.10;92.00
7349;DHT22;13010;-33.424;-70.614;2023-02-08T00:41:39;22.00;93.80
7349;DHT22;13010;-33.424;-70.614;2023-02-08T00:44:29;22.10;97.90
7349;DHT22;13010;-33.424;-70.614;2023-02-08T00:47:18;21.90;99.90
7349;DHT22;13010;-33.424;-70.614;2023-02-08T00:50:08;22.00;99.90
7349;DHT22;13010;-33.424;-70.614;2023-02-08T00:52:59;22.00;99.90
7349;DHT22;13010;-33.424;-70.614;2023-02-08T00:55:53;21.90;99.90
7349;DHT22;13010;-33.424;-70.614;2023-02-08T00:58:44;21.80;99.90
7349;DHT22;13010;-33.424;-70.614;2023-02-08T01:01:33;21.80;99.90
7349;DHT22;13010;-33.424;-70.614;2023-02-08T01:04:22;21.80;99.90
7349;DHT22;13010;-33.424;-70.614;2023-02-08T01:07:14;21.60;99.90
7349;DHT22;13010;-33.424;-70.614;2023-02-08T01:10:03;21.70;99.90
7349;DHT22;13010;-33.424;-70.614;2023-02-08T01:12:55;21.60;99.90
7349;DHT22;13010;-33.424;-70.614;2023-02-08T01:15:44;21.40;99.90
7349;DHT22;13010;-33.424;-70.614;2023-02-08T01:18:33;21.10;99.90
7349;DHT22;13010;-33.424;-70.614;2023-02-08T01:21:22;20.80;99.90
7349;DHT22;13010;-33.424;-70.614;2023-02-08T01:24:12;20.40;99.90
7349;DHT22;13010;-33.424;-70.614;2023-02-08T01:27:01;20.20;99.90
7349;DHT22;13010;-33.424;-70.614;2023-02-08T01:29:52;19.90;99.90
7349;DHT22;13010;-33.424;-70.614;2023-02-08T01:32:41;19.70;99.90
7349;DHT22;13010;-33.424;-70.614;2023-02-08T01:35:30;19.50;99.90
7349;DHT22;13010;-33.424;-70.614;2023-02-08T01:38:20;19.40;99.90
7349;DHT22;13010;-33.424;-70.614;2023-02-08T01:41:14;19.40;99.90
7349;DHT22;13010;-33.424;-70.614;2023-02-08T01:44:07;19.20;99.90
7349;DHT22;13010;-33.424;-70.614;2023-02-08T01:46:58;19.10;99.90
7349;DHT22;13010;-33.424;-70.614;2023-02-08T01:49:48;18.90;99.90
7349;DHT22;13010;-33.424;-70.614;2023-02-08T01:52:38;18.80;99.90
7349;DHT22;13010;-33.424;-70.614;2023-02-08T01:55:30;18.70;99.90
7349;DHT22;13010;-33.424;-70.614;2023-02-08T01:58:21;18.60;99.90
7349;DHT22;13010;-33.424;-70.614;2023-02-08T02:01:11;18.60;99.90
7349;DHT22;13010;-33.424;-70.614;2023-02-08T02:04:04;18.70;99.90
7349;DHT22;13010;-33.424;-70.614;2023-02-08T02:06:55;18.70;99.90
7349;DHT22;13010;-33.424;-70.614;2023-02-08T02:09:48;18.90;99.90
7349;DHT22;13010;-33.424;-70.614;2023-02-08T02:12:39;19.00;99.90
7349;DHT22;13010;-33.424;-70.614;2023-02-08T02:15:28;18.90;99.90
7349;DHT22;13010;-33.424;-70.614;2023-02-08T02:18:21;18.80;99.90
7349;DHT22;13010;-33.424;-70.614;2023-02-08T02:21:30;18.80;99.90
7349;DHT22;13010;-33.424;-70.614;2023-02-08T02:28:41;18.40;99.90
7349;DHT22;13010;-33.424;-70.614;2023-02-08T02:34:48;18.20;99.90
7349;DHT22;13010;-33.424;-70.614;2023-02-08T02:37:45;18.10;99.90
7349;DHT22;13010;-33.424;-70.614;2023-02-08T02:40:56;18.10;99.90
7349;DHT22;13010;-33.424;-70.614;2023-02-08T02:43:50;18.20;99.90
7349;DHT22;13010;-33.424;-70.614;2023-02-08T02:46:45;18.20;99.90
7349;DHT22;13010;-33.424;-70.614;2023-02-08T02:49:38;18.20;99.90
7349;DHT22;13010;-33.424;-70.614;2023-02-08T02:52:33;18.00;99.90
7349;DHT22;13010;-33.424;-70.614;2023-02-08T02:55:25;18.00;99.90
7349;DHT22;13010;-33.424;-70.614;2023-02-08T02:58:17;18.30;99.90
7349;DHT22;13010;-33.424;-70.614;2023-02-08T03:01:07;18.60;99.90
7349;DHT22;13010;-33.424;-70.614;2023-02-08T03:03:59;18.50;99.90
7349;DHT22;13010;-33.424;-70.614;2023-02-08T03:06:58;18.60;99.90
7349;DHT22;13010;-33.424;-70.614;2023-02-08T03:10:00;18.60;99.90
7349;DHT22;13010;-33.424;-70.614;2023-02-08T03:12:57;18.60;99.90
7349;DHT22;13010;-33.424;-70.614;2023-02-08T03:15:58;18.70;99.90
7349;DHT22;13010;-33.424;-70.614;2023-02-08T03:18:59;18.60;99.90
7349;DHT22;13010;-33.424;-70.614;2023-02-08T03:21:54;18.70;99.90
7349;DHT22;13010;-33.424;-70.614;2023-02-08T03:24:50;18.70;99.90
7349;DHT22;13010;-33.424;-70.614;2023-02-08T03:27:48;18.70;99.90
7349;DHT22;13010;-33.424;-70.614;2023-02-08T03:30:48;18.50;99.90
7349;DHT22;13010;-33.424;-70.614;2023-02-08T03:33:43;18.60;99.90
7349;DHT22;13010;-33.424;-70.614;2023-02-08T03:36:41;18.40;99.90
7349;DHT22;13010;-33.424;-70.614;2023-02-08T03:39:34;18.20;99.90
7349;DHT22;13010;-33.424;-70.614;2023-02-08T03:42:25;18.10;99.90
7349;DHT22;13010;-33.424;-70.614;2023-02-08T03:45:20;18.20;99.90
7349;DHT22;13010;-33.424;-70.614;2023-02-08T03:48:11;18.10;99.90
7349;DHT22;13010;-33.424;-70.614;2023-02-08T03:51:02;18.10;99.90
7349;DHT22;13010;-33.424;-70.614;2023-02-08T03:53:54;18.00;99.90
7349;DHT22;13010;-33.424;-70.614;2023-02-08T03:56:47;17.80;99.90
7349;DHT22;13010;-33.424;-70.614;2023-02-08T03:59:41;17.70;99.90
7349;DHT22;13010;-33.424;-70.614;2023-02-08T04:02:32;17.40;99.90
7349;DHT22;13010;-33.424;-70.614;2023-02-08T04:05:22;17.40;99.90
7349;DHT22;13010;-33.424;-70.614;2023-02-08T04:08:12;17.50;99.90
7349;DHT22;13010;-33.424;-70.614;2023-02-08T04:11:05;17.20;99.90
7349;DHT22;13010;-33.424;-70.614;2023-02-08T04:13:54;16.80;99.90
7349;DHT22;13010;-33.424;-70.614;2023-02-08T04:16:44;16.40;99.90
7349;DHT22;13010;-33.424;-70.614;2023-02-08T04:19:33;16.20;99.90
7349;DHT22;13010;-33.424;-70.614;2023-02-08T04:22:22;16.30;99.90
7349;DHT22;13010;-33.424;-70.614;2023-02-08T04:25:11;16.40;99.90
7349;DHT22;13010;-33.424;-70.614;2023-02-08T04:28:02;16.10;99.90
7349;DHT22;13010;-33.424;-70.614;2023-02-08T04:30:50;15.90;99.90
7349;DHT22;13010;-33.424;-70.614;2023-02-08T04:33:41;16.10;99.90
7349;DHT22;13010;-33.424;-70.614;2023-02-08T04:36:31;16.10;99.90
7349;DHT22;13010;-33.424;-70.614;2023-02-08T04:39:20;15.90;99.90
7349;DHT22;13010;-33.424;-70.614;2023-02-08T04:42:09;15.70;99.90
7349;DHT22;13010;-33.424;-70.614;2023-02-08T04:44:59;15.40;99.90
7349;DHT22;13010;-33.424;-70.614;2023-02-08T04:47:48;15.40;99.90
7349;DHT22;13010;-33.424;-70.614;2023-02-08T04:50:37;15.30;99.90
7349;DHT22;13010;-33.424;-70.614;2023-02-08T04:53:26;15.30;99.90
7349;DHT22;13010;-33.424;-70.614;2023-02-08T04:56:14;15.20;99.90
7349;DHT22;13010;-33.424;-70.614;2023-02-08T04:59:03;15.30;99.90
7349;DHT22;13010;-33.424;-70.614;2023-02-08T05:01:54;15.30;99.90
7349;DHT22;13010;-33.424;-70.614;2023-02-08T05:04:42;15.10;99.90
7349;DHT22;13010;-33.424;-70.614;2023-02-08T05:07:31;14.90;99.90
7349;DHT22;13010;-33.424;-70.614;2023-02-08T05:10:20;14.80;99.90
7349;DHT22;13010;-33.424;-70.614;2023-02-08T05:13:09;14.90;99.90
7349;DHT22;13010;-33.424;-70.614;2023-02-08T05:15:58;15.20;99.90
7349;DHT22;13010;-33.424;-70.614;2023-02-08T05:18:49;15.30;99.90
7349;DHT22;13010;-33.424;-70.614;2023-02-08T05:21:38;15.50;99.90
7349;DHT22;13010;-33.424;-70.614;2023-02-08T05:24:27;15.60;99.90
7349;DHT22;13010;-33.424;-70.614;2023-02-08T05:27:16;15.80;99.90
7349;DHT22;13010;-33.424;-70.614;2023-02-08T05:30:05;15.90;99.90
7349;DHT22;13010;-33.424;-70.614;2023-02-08T05:32:54;16.20;99.90
7349;DHT22;13010;-33.424;-70.614;2023-02-08T05:35:44;16.10;99.90
7349;DHT22;13010;-33.424;-70.614;2023-02-08T05:38:33;16.00;99.90
7349;DHT22;13010;-33.424;-70.614;2023-02-08T05:41:22;15.90;99.90
7349;DHT22;13010;-33.424;-70.614;2023-02-08T05:44:11;15.80;99.90
7349;DHT22;13010;-33.424;-70.614;2023-02-08T05:47:00;15.70;99.90
7349;DHT22;13010;-33.424;-70.614;2023-02-08T05:49:49;15.50;99.90
7349;DHT22;13010;-33.424;-70.614;2023-02-08T05:52:39;15.40;99.90
7349;DHT22;13010;-33.424;-70.614;2023-02-08T05:55:28;15.30;99.90
7349;DHT22;13010;-33.424;-70.614;2023-02-08T05:58:17;15.20;99.90
7349;DHT22;13010;-33.424;-70.614;2023-02-08T06:01:08;15.00;99.90
7349;DHT22;13010;-33.424;-70.614;2023-02-08T06:03:59;14.80;99.90
7349;DHT22;13010;-33.424;-70.614;2023-02-08T06:06:51;14.50;99.90
7349;DHT22;13010;-33.424;-70.614;2023-02-08T06:09:42;14.30;99.90
7349;DHT22;13010;-33.424;-70.614;2023-02-08T06:12:30;14.30;99.90
7349;DHT22;13010;-33.424;-70.614;2023-02-08T06:15:19;14.40;99.90
7349;DHT22;13010;-33.424;-70.614;2023-02-08T06:18:09;14.80;99.90
7349;DHT22;13010;-33.424;-70.614;2023-02-08T06:20:58;14.90;99.90
7349;DHT22;13010;-33.424;-70.614;2023-02-08T06:23:46;14.90;99.90
7349;DHT22;13010;-33.424;-70.614;2023-02-08T06:26:37;14.90;99.90
7349;DHT22;13010;-33.424;-70.614;2023-02-08T06:29:26;14.80;99.90
7349;DHT22;13010;-33.424;-70.614;2023-02-08T06:32:15;14.90;99.90
7349;DHT22;13010;-33.424;-70.614;2023-02-08T06:35:04;15.00;99.90
7349;DHT22;13010;-33.424;-70.614;2023-02-08T06:37:52;15.10;99.90
7349;DHT22;13010;-33.424;-70.614;2023-02-08T06:40:41;15.10;99.90
7349;DHT22;13010;-33.424;-70.614;2023-02-08T06:43:31;15.10;99.90
7349;DHT22;13010;-33.424;-70.614;2023-02-08T06:46:20;15.00;99.90
7349;DHT22;13010;-33.424;-70.614;2023-02-08T06:49:09;14.90;99.90
7349;DHT22;13010;-33.424;-70.614;2023-02-08T06:51:58;14.70;99.90
7349;DHT22;13010;-33.424;-70.614;2023-02-08T06:54:46;14.30;99.90
7349;DHT22;13010;-33.424;-70.614;2023-02-08T06:57:35;14.20;99.90
7349;DHT22;13010;-33.424;-70.614;2023-02-08T07:00:25;14.00;99.90
7349;DHT22;13010;-33.424;-70.614;2023-02-08T07:03:15;13.90;99.90
7349;DHT22;13010;-33.424;-70.614;2023-02-08T07:06:04;13.80;99.90
7349;DHT22;13010;-33.424;-70.614;2023-02-08T07:08:53;13.70;99.90
7349;DHT22;13010;-33.424;-70.614;2023-02-08T07:11:42;13.90;99.90
7349;DHT22;13010;-33.424;-70.614;2023-02-08T07:14:31;13.80;99.90
7349;DHT22;13010;-33.424;-70.614;2023-02-08T07:17:22;13.70;99.90
7349;DHT22;13010;-33.424;-70.614;2023-02-08T07:20:11;13.70;99.90
7349;DHT22;13010;-33.424;-70.614;2023-02-08T07:22:59;13.90;99.90
7349;DHT22;13010;-33.424;-70.614;2023-02-08T07:25:57;13.90;99.90
7349;DHT22;13010;-33.424;-70.614;2023-02-08T07:28:45;13.70;99.90
7349;DHT22;13010;-33.424;-70.614;2023-02-08T07:31:34;13.50;99.90
7349;DHT22;13010;-33.424;-70.614;2023-02-08T07:34:25;13.50;99.90
7349;DHT22;13010;-33.424;-70.614;2023-02-08T07:37:13;13.70;99.90
7349;DHT22;13010;-33.424;-70.614;2023-02-08T07:40:02;13.70;99.90
7349;DHT22;13010;-33.424;-70.614;2023-02-08T07:42:51;13.60;99.90
7349;DHT22;13010;-33.424;-70.614;2023-02-08T07:45:40;13.70;99.90
7349;DHT22;13010;-33.424;-70.614;2023-02-08T07:48:29;13.80;99.90
7349;DHT22;13010;-33.424;-70.614;2023-02-08T07:51:19;13.70;99.90
7349;DHT22;13010;-33.424;-70.614;2023-02-08T07:54:08;13.60;99.90
7349;DHT22;13010;-33.424;-70.614;2023-02-08T07:56:57;13.70;99.90
7349;DHT22;13010;-33.424;-70.614;2023-02-08T07:59:46;13.70;99.90
7349;DHT22;13010;-33.424;-70.614;2023-02-08T08:02:35;13.80;99.90
7349;DHT22;13010;-33.424;-70.614;2023-02-08T08:05:23;13.80;99.90
7349;DHT22;13010;-33.424;-70.614;2023-02-08T08:08:14;13.80;99.90
7349;DHT22;13010;-33.424;-70.614;2023-02-08T08:11:02;14.00;99.90
7349;DHT22;13010;-33.424;-70.614;2023-02-08T08:13:51;14.10;99.90
7349;DHT22;13010;-33.424;-70.614;2023-02-08T08:16:39;14.00;99.90
7349;DHT22;13010;-33.424;-70.614;2023-02-08T08:19:29;13.90;99.90
7349;DHT22;13010;-33.424;-70.614;2023-02-08T08:22:17;13.70;99.90
7349;DHT22;13010;-33.424;-70.614;2023-02-08T08:25:08;13.50;99.90
7349;DHT22;13010;-33.424;-70.614;2023-02-08T08:27:57;13.40;99.90
7349;DHT22;13010;-33.424;-70.614;2023-02-08T08:30:46;13.20;99.90
7349;DHT22;13010;-33.424;-70.614;2023-02-08T08:33:35;13.00;99.90
7349;DHT22;13010;-33.424;-70.614;2023-02-08T08:36:23;12.80;99.90
7349;DHT22;13010;-33.424;-70.614;2023-02-08T08:39:12;12.80;99.90
7349;DHT22;13010;-33.424;-70.614;2023-02-08T08:42:03;13.00;99.90
7349;DHT22;13010;-33.424;-70.614;2023-02-08T08:44:52;13.20;99.90
7349;DHT22;13010;-33.424;-70.614;2023-02-08T08:47:41;13.20;99.90
7349;DHT22;13010;-33.424;-70.614;2023-02-08T08:50:30;13.10;99.90
7349;DHT22;13010;-33.424;-70.614;2023-02-08T08:53:19;13.10;99.90
7349;DHT22;13010;-33.424;-70.614;2023-02-08T08:56:08;13.10;99.90
7349;DHT22;13010;-33.424;-70.614;2023-02-08T08:58:58;13.20;99.90
7349;DHT22;13010;-33.424;-70.614;2023-02-08T09:01:47;13.30;99.90
7349;DHT22;13010;-33.424;-70.614;2023-02-08T09:04:36;13.20;99.90
7349;DHT22;13010;-33.424;-70.614;2023-02-08T09:07:25;13.10;99.90
7349;DHT22;13010;-33.424;-70.614;2023-02-08T09:10:14;13.00;99.90
7349;DHT22;13010;-33.424;-70.614;2023-02-08T09:13:02;12.80;99.90
7349;DHT22;13010;-33.424;-70.614;2023-02-08T09:15:52;12.60;99.90
7349;DHT22;13010;-33.424;-70.614;2023-02-08T09:18:41;12.30;99.90
7349;DHT22;13010;-33.424;-70.614;2023-02-08T09:21:30;12.20;99.90
7349;DHT22;13010;-33.424;-70.614;2023-02-08T09:24:19;11.90;99.90
7349;DHT22;13010;-33.424;-70.614;2023-02-08T09:27:08;11.80;99.90
7349;DHT22;13010;-33.424;-70.614;2023-02-08T09:29:57;11.70;99.90
7349;DHT22;13010;-33.424;-70.614;2023-02-08T09:32:47;11.60;99.90
7349;DHT22;13010;-33.424;-70.614;2023-02-08T09:35:36;11.60;99.90
7349;DHT22;13010;-33.424;-70.614;2023-02-08T09:38:27;11.50;99.90
7349;DHT22;13010;-33.424;-70.614;2023-02-08T09:41:26;11.40;99.90
7349;DHT22;13010;-33.424;-70.614;2023-02-08T09:44:24;11.30;99.90
7349;DHT22;13010;-33.424;-70.614;2023-02-08T09:47:19;11.20;99.90
7349;DHT22;13010;-33.424;-70.614;2023-02-08T09:50:14;11.00;99.90
7349;DHT22;13010;-33.424;-70.614;2023-02-08T09:53:10;11.00;99.90
7349;DHT22;13010;-33.424;-70.614;2023-02-08T09:56:01;11.00;99.90
7349;DHT22;13010;-33.424;-70.614;2023-02-08T09:58:52;11.00;99.90
7349;DHT22;13010;-33.424;-70.614;2023-02-08T10:01:41;11.20;99.90
7349;DHT22;13010;-33.424;-70.614;2023-02-08T10:04:37;11.40;99.90
7349;DHT22;13010;-33.424;-70.614;2023-02-08T10:07:31;11.40;99.90
7349;DHT22;13010;-33.424;-70.614;2023-02-08T10:10:23;11.50;99.90
7349;DHT22;13010;-33.424;-70.614;2023-02-08T10:13:27;11.30;99.90
7349;DHT22;13010;-33.424;-70.614;2023-02-08T10:16:39;11.10;99.90
7349;DHT22;13010;-33.424;-70.614;2023-02-08T10:19:45;11.20;99.90
7349;DHT22;13010;-33.424;-70.614;2023-02-08T10:22:43;11.40;99.90
7349;DHT22;13010;-33.424;-70.614;2023-02-08T10:25:45;11.30;99.90
7349;DHT22;13010;-33.424;-70.614;2023-02-08T10:28:47;11.00;99.90
7349;DHT22;13010;-33.424;-70.614;2023-02-08T10:35:08;11.10;99.90
7349;DHT22;13010;-33.424;-70.614;2023-02-08T10:38:00;11.10;99.90
7349;DHT22;13010;-33.424;-70.614;2023-02-08T10:40:50;11.20;99.90
7349;DHT22;13010;-33.424;-70.614;2023-02-08T10:43:43;11.20;99.90
7349;DHT22;13010;-33.424;-70.614;2023-02-08T10:46:39;11.60;99.90
7349;DHT22;13010;-33.424;-70.614;2023-02-08T10:49:35;11.60;99.90
7349;DHT22;13010;-33.424;-70.614;2023-02-08T10:52:27;12.00;99.90
7349;DHT22;13010;-33.424;-70.614;2023-02-08T10:55:19;12.10;99.90
7349;DHT22;13010;-33.424;-70.614;2023-02-08T10:58:15;12.10;99.90
7349;DHT22;13010;-33.424;-70.614;2023-02-08T11:01:04;12.10;99.90
7349;DHT22;13010;-33.424;-70.614;2023-02-08T11:04:02;12.30;99.90
7349;DHT22;13010;-33.424;-70.614;2023-02-08T11:06:51;13.00;99.90
7349;DHT22;13010;-33.424;-70.614;2023-02-08T11:09:40;13.60;99.90
7349;DHT22;13010;-33.424;-70.614;2023-02-08T11:12:31;14.70;99.90
7349;DHT22;13010;-33.424;-70.614;2023-02-08T11:15:24;15.20;99.90
7349;DHT22;13010;-33.424;-70.614;2023-02-08T11:18:21;16.00;99.90
7349;DHT22;13010;-33.424;-70.614;2023-02-08T11:21:22;15.80;99.90
7349;DHT22;13010;-33.424;-70.614;2023-02-08T11:24:26;15.50;99.90
7349;DHT22;13010;-33.424;-70.614;2023-02-08T11:27:17;15.50;99.90
7349;DHT22;13010;-33.424;-70.614;2023-02-08T11:30:21;16.20;99.90
7349;DHT22;13010;-33.424;-70.614;2023-02-08T11:33:16;16.90;99.90
7349;DHT22;13010;-33.424;-70.614;2023-02-08T11:36:24;16.20;99.90
7349;DHT22;13010;-33.424;-70.614;2023-02-08T11:39:20;16.90;99.90
7349;DHT22;13010;-33.424;-70.614;2023-02-08T11:42:18;18.60;99.90
7349;DHT22;13010;-33.424;-70.614;2023-02-08T11:45:15;19.80;99.90
7349;DHT22;13010;-33.424;-70.614;2023-02-08T11:48:18;20.40;99.90
7349;DHT22;13010;-33.424;-70.614;2023-02-08T11:51:09;20.60;99.90
7349;DHT22;13010;-33.424;-70.614;2023-02-08T11:54:09;21.20;99.90
7349;DHT22;13010;-33.424;-70.614;2023-02-08T11:57:18;22.00;99.90
7349;DHT22;13010;-33.424;-70.614;2023-02-08T12:00:22;23.80;99.90
7349;DHT22;13010;-33.424;-70.614;2023-02-08T12:03:23;24.30;99.90
7349;DHT22;13010;-33.424;-70.614;2023-02-08T12:06:26;25.30;99.90
7349;DHT22;13010;-33.424;-70.614;2023-02-08T12:09:29;26.00;99.90
7349;DHT22;13010;-33.424;-70.614;2023-02-08T12:12:28;25.60;99.90
7349;DHT22;13010;-33.424;-70.614;2023-02-08T12:15:29;25.70;99.90
7349;DHT22;13010;-33.424;-70.614;2023-02-08T12:21:40;26.30;99.90
7349;DHT22;13010;-33.424;-70.614;2023-02-08T12:24:36;26.60;99.90
7349;DHT22;13010;-33.424;-70.614;2023-02-08T12:27:35;27.70;99.90
7349;DHT22;13010;-33.424;-70.614;2023-02-08T12:30:31;28.90;99.90
7349;DHT22;13010;-33.424;-70.614;2023-02-08T12:33:38;29.70;95.10
7349;DHT22;13010;-33.424;-70.614;2023-02-08T12:36:46;30.60;91.80
7349;DHT22;13010;-33.424;-70.614;2023-02-08T12:40:08;31.30;81.70
7349;DHT22;13010;-33.424;-70.614;2023-02-08T12:43:31;32.00;70.80
7349;DHT22;13010;-33.424;-70.614;2023-02-08T12:46:28;32.60;60.50
7349;DHT22;13010;-33.424;-70.614;2023-02-08T12:49:39;32.20;58.20
7349;DHT22;13010;-33.424;-70.614;2023-02-08T12:52:36;33.40;56.30
7349;DHT22;13010;-33.424;-70.614;2023-02-08T12:55:30;35.00;47.70
7349;DHT22;13010;-33.424;-70.614;2023-02-08T12:58:26;35.30;44.90
7349;DHT22;13010;-33.424;-70.614;2023-02-08T13:01:18;36.20;39.70
7349;DHT22;13010;-33.424;-70.614;2023-02-08T13:04:10;34.00;38.60
7349;DHT22;13010;-33.424;-70.614;2023-02-08T13:07:03;35.80;38.60
7349;DHT22;13010;-33.424;-70.614;2023-02-08T13:09:59;35.50;36.70
7349;DHT22;13010;-33.424;-70.614;2023-02-08T13:12:53;34.90;35.00
7349;DHT22;13010;-33.424;-70.614;2023-02-08T13:15:47;36.90;32.50
7349;DHT22;13010;-33.424;-70.614;2023-02-08T13:18:45;38.00;30.90
7349;DHT22;13010;-33.424;-70.614;2023-02-08T13:21:36;38.60;28.60
7349;DHT22;13010;-33.424;-70.614;2023-02-08T13:24:32;39.20;25.50
7349;DHT22;13010;-33.424;-70.614;2023-02-08T13:27:22;40.20;23.40
7349;DHT22;13010;-33.424;-70.614;2023-02-08T13:30:19;38.90;22.50
7349;DHT22;13010;-33.424;-70.614;2023-02-08T13:33:18;38.90;24.70
7349;DHT22;13010;-33.424;-70.614;2023-02-08T13:36:19;39.90;22.40
7349;DHT22;13010;-33.424;-70.614;2023-02-08T13:39:29;39.60;20.70
7349;DHT22;13010;-33.424;-70.614;2023-02-08T13:42:21;36.00;25.20
7349;DHT22;13010;-33.424;-70.614;2023-02-08T13:45:24;37.50;25.40
7349;DHT22;13010;-33.424;-70.614;2023-02-08T13:48:18;38.50;22.80
7349;DHT22;13010;-33.424;-70.614;2023-02-08T13:54:43;38.80;21.00
7349;DHT22;13010;-33.424;-70.614;2023-02-08T13:57:53;39.30;20.20
7349;DHT22;13010;-33.424;-70.614;2023-02-08T14:01:07;42.10;19.30
7349;DHT22;13010;-33.424;-70.614;2023-02-08T14:04:26;43.60;16.40
7349;DHT22;13010;-33.424;-70.614;2023-02-08T14:07:23;38.70;19.10
7349;DHT22;13010;-33.424;-70.614;2023-02-08T14:10:29;36.60;20.60
7349;DHT22;13010;-33.424;-70.614;2023-02-08T14:13:28;38.20;20.30
7349;DHT22;13010;-33.424;-70.614;2023-02-08T14:16:30;36.70;22.10
7349;DHT22;13010;-33.424;-70.614;2023-02-08T14:19:24;38.20;22.10
7349;DHT22;13010;-33.424;-70.614;2023-02-08T14:22:17;39.60;20.10
7349;DHT22;13010;-33.424;-70.614;2023-02-08T14:25:15;39.00;20.90
7349;DHT22;13010;-33.424;-70.614;2023-02-08T14:28:05;40.40;18.20
7349;DHT22;13010;-33.424;-70.614;2023-02-08T14:30:57;38.30;17.90
7349;DHT22;13010;-33.424;-70.614;2023-02-08T14:33:52;36.80;19.60
7349;DHT22;13010;-33.424;-70.614;2023-02-08T14:36:42;39.00;18.60
7349;DHT22;13010;-33.424;-70.614;2023-02-08T14:39:34;39.50;17.50
7349;DHT22;13010;-33.424;-70.614;2023-02-08T14:42:53;38.70;17.50
7349;DHT22;13010;-33.424;-70.614;2023-02-08T14:45:42;35.90;20.40
7349;DHT22;13010;-33.424;-70.614;2023-02-08T14:48:31;37.20;20.30
7349;DHT22;13010;-33.424;-70.614;2023-02-08T14:51:26;37.90;20.20
7349;DHT22;13010;-33.424;-70.614;2023-02-08T14:54:20;39.30;18.10
7349;DHT22;13010;-33.424;-70.614;2023-02-08T14:57:19;39.20;18.50
7349;DHT22;13010;-33.424;-70.614;2023-02-08T15:00:18;44.10;14.70
7349;DHT22;13010;-33.424;-70.614;2023-02-08T15:03:14;40.40;16.00
7349;DHT22;13010;-33.424;-70.614;2023-02-08T15:06:33;42.40;14.00
7349;DHT22;13010;-33.424;-70.614;2023-02-08T15:09:27;41.40;14.00
7349;DHT22;13010;-33.424;-70.614;2023-02-08T15:12:23;40.60;13.80
7349;DHT22;13010;-33.424;-70.614;2023-02-08T15:15:23;40.40;15.50
7349;DHT22;13010;-33.424;-70.614;2023-02-08T15:18:18;41.00;15.20
7349;DHT22;13010;-33.424;-70.614;2023-02-08T15:21:15;42.80;13.40
7349;DHT22;13010;-33.424;-70.614;2023-02-08T15:24:14;41.00;14.50
7349;DHT22;13010;-33.424;-70.614;2023-02-08T15:27:15;44.10;13.50
7349;DHT22;13010;-33.424;-70.614;2023-02-08T15:30:28;43.10;12.40
7349;DHT22;13010;-33.424;-70.614;2023-02-08T15:33:18;40.40;15.20
7349;DHT22;13010;-33.424;-70.614;2023-02-08T15:36:13;41.60;13.80
7349;DHT22;13010;-33.424;-70.614;2023-02-08T15:39:08;40.60;14.30
7349;DHT22;13010;-33.424;-70.614;2023-02-08T15:41:57;42.20;15.50
7349;DHT22;13010;-33.424;-70.614;2023-02-08T15:44:47;43.60;12.40
7349;DHT22;13010;-33.424;-70.614;2023-02-08T15:47:37;40.60;14.50
7349;DHT22;13010;-33.424;-70.614;2023-02-08T15:50:28;42.00;14.00
7349;DHT22;13010;-33.424;-70.614;2023-02-08T15:53:18;43.20;12.50
7349;DHT22;13010;-33.424;-70.614;2023-02-08T15:56:10;41.60;13.50
7349;DHT22;13010;-33.424;-70.614;2023-02-08T15:59:03;40.10;14.90
7349;DHT22;13010;-33.424;-70.614;2023-02-08T16:01:55;40.30;14.40
7349;DHT22;13010;-33.424;-70.614;2023-02-08T16:04:45;42.30;14.50
7349;DHT22;13010;-33.424;-70.614;2023-02-08T16:07:36;41.70;14.30
7349;DHT22;13010;-33.424;-70.614;2023-02-08T16:10:34;42.80;13.30
7349;DHT22;13010;-33.424;-70.614;2023-02-08T16:13:30;43.60;14.10
7349;DHT22;13010;-33.424;-70.614;2023-02-08T16:16:21;44.10;11.90
7349;DHT22;13010;-33.424;-70.614;2023-02-08T16:19:21;42.70;12.40
7349;DHT22;13010;-33.424;-70.614;2023-02-08T16:22:23;43.60;13.40
7349;DHT22;13010;-33.424;-70.614;2023-02-08T16:25:41;44.00;12.10
7349;DHT22;13010;-33.424;-70.614;2023-02-08T16:28:33;44.50;12.00
7349;DHT22;13010;-33.424;-70.614;2023-02-08T16:31:24;43.00;12.40
7349;DHT22;13010;-33.424;-70.614;2023-02-08T16:34:19;43.30;13.30
7349;DHT22;13010;-33.424;-70.614;2023-02-08T16:37:22;43.20;11.70
7349;DHT22;13010;-33.424;-70.614;2023-02-08T16:40:45;42.50;11.60
7349;DHT22;13010;-33.424;-70.614;2023-02-08T16:43:39;44.30;11.90
7349;DHT22;13010;-33.424;-70.614;2023-02-08T16:46:29;42.40;10.90
7349;DHT22;13010;-33.424;-70.614;2023-02-08T16:49:18;42.90;10.50
7349;DHT22;13010;-33.424;-70.614;2023-02-08T16:52:09;41.40;13.90
7349;DHT22;13010;-33.424;-70.614;2023-02-08T16:54:59;41.80;13.40
7349;DHT22;13010;-33.424;-70.614;2023-02-08T16:57:50;41.60;12.30
7349;DHT22;13010;-33.424;-70.614;2023-02-08T17:00:41;42.30;12.60
7349;DHT22;13010;-33.424;-70.614;2023-02-08T17:03:30;42.40;11.20
7349;DHT22;13010;-33.424;-70.614;2023-02-08T17:06:31;43.00;13.00
7349;DHT22;13010;-33.424;-70.614;2023-02-08T17:09:20;43.50;11.30
7349;DHT22;13010;-33.424;-70.614;2023-02-08T17:12:10;44.00;10.90
7349;DHT22;13010;-33.424;-70.614;2023-02-08T17:14:58;44.20;9.80
7349;DHT22;13010;-33.424;-70.614;2023-02-08T17:17:49;44.00;10.30
7349;DHT22;13010;-33.424;-70.614;2023-02-08T17:20:38;44.30;9.30
7349;DHT22;13010;-33.424;-70.614;2023-02-08T17:23:27;43.90;10.60
7349;DHT22;13010;-33.424;-70.614;2023-02-08T17:26:17;43.30;8.90
7349;DHT22;13010;-33.424;-70.614;2023-02-08T17:29:07;43.80;10.10
7349;DHT22;13010;-33.424;-70.614;2023-02-08T17:31:56;43.80;11.30
7349;DHT22;13010;-33.424;-70.614;2023-02-08T17:34:47;42.40;10.80
7349;DHT22;13010;-33.424;-70.614;2023-02-08T17:37:36;45.10;9.20
7349;DHT22;13010;-33.424;-70.614;2023-02-08T17:40:26;45.40;8.10
7349;DHT22;13010;-33.424;-70.614;2023-02-08T17:43:17;44.80;8.50
7349;DHT22;13010;-33.424;-70.614;2023-02-08T17:46:13;43.90;9.60
7349;DHT22;13010;-33.424;-70.614;2023-02-08T17:49:02;42.30;8.70
7349;DHT22;13010;-33.424;-70.614;2023-02-08T17:51:54;41.90;9.90
7349;DHT22;13010;-33.424;-70.614;2023-02-08T17:54:43;41.50;11.00
7349;DHT22;13010;-33.424;-70.614;2023-02-08T17:57:32;41.80;11.10
7349;DHT22;13010;-33.424;-70.614;2023-02-08T18:00:22;41.50;10.70